Current Weather

La Porte Muni

La Porte, Indiana (KPPO)

Report from: Monday, June 24, 2024 3:55 PM CDT
Current time: Tuesday, June 25, 2024 4:38 AM CDT

Nearby weather – Weather history – Daily summaries
Weather forecast

Temperature28.0°C (82.4°F)
Heat index28.3°C (83.0°F)
Dew point15.0°C (59.0°F)
Winds 2 kts (1 m/s, 2.3 mph) Vrb
Winds variableWinds variable
Visibility10 mi. (16.1 km)
Clouds Sky clear
Altimeter29.96 in.Hg (1015 mB)
Relative humidity45 %
Density altitude1,689 ft. (515 m)
Remarks Fully automated report
Automated weather observing station with precipitation discriminator
Flight conditions Visual Meteorological Conditions
Raw dataKPPO 242055Z AUTO VRB02KT 10SM CLR 28/15 A2996 RMK AO2
An unhandled exception has occurred. See browser dev tools for details. Reload 🗙